Terminal Aerodrome Forecast
Issued by NWS

Home | Current Version | Previous Version | Text Only | Print | Product List | Glossary On
Versions: 1 2 3 4 5 6 7 8 9 10 11 12 13 14 15 16 17 18
000
FTUS44 KLIX 111731
TAFMCB
TAF
KMCB 111731Z 1118/1218 VRB06KT P6SM SKC
     FM120500 25006KT P6SM SKC WS020/28035KT
     FM120800 29007KT P6SM SKC WS020/31040KT
     FM120900 30007KT P6SM SKC
     FM121100 33007KT P6SM SKC=

USA.gov is the U.S. government's official web portal to all federal, state and local government web resources and services.